Hoppet Af Brantevik — SKWL — position and weather

sailwx.info

Track history (hours):
 
Tides and Currents Weather Stations Pressure Air Temp Water Temp Dewpoint Dewpoint Depression Visibility Wind Speed Wind Dir Waves Ship Positions

Hoppet Af Brantevik

Last reported at 2015-May-24 09:15 UTC. Time now 2015-May-28 22:16 UTC.
Position N 55°26' E 014°39'.

Length 17 m; draft 2.2 m.

Type: Ship. MMSI: 265525900.

Date/timePositionNaut miles runAvg speedWind from/ knotsBaromVisibWave heightAir tempDewpointWater temp
2015-May-24 09:15N 55°26' E 014°39'4 6.1
2015-May-24 08:33N 55°25' E 014°47'6 6.3
2015-May-24 07:33N 55°23' E 014°57'7 6.8
2015-May-24 06:33N 55°21' E 015°08'2 2.0
2015-May-24 05:31N 55°19' E 015°11'0 0.0
2015-May-24 04:31N 55°19' E 015°11'0 0.0
2015-May-24 03:31N 55°19' E 015°11'0 0.0
2015-May-24 02:31N 55°19' E 015°11'0 0.0
2015-May-24 01:31N 55°19' E 015°11'0 0.0
2015-May-23 22:19N 55°19' E 015°11'0 0.0
2015-May-23 21:31N 55°19' E 015°11'0 0.0
2015-May-23 20:25N 55°19' E 015°11'0 0.0
2015-May-23 19:31N 55°19' E 015°11'0 0.0
2015-May-23 18:31N 55°19' E 015°11'0 0.0
2015-May-23 17:31N 55°19' E 015°11'0 0.0
2015-May-23 16:31N 55°19' E 015°11'0 0.0
2015-May-23 15:25N 55°19' E 015°11'0 0.0
2015-May-23 14:31N 55°19' E 015°11'0 0.0
2015-May-23 13:31N 55°19' E 015°11'0 0.0
2015-May-23 12:31N 55°19' E 015°11'2 1.7
2015-May-23 11:33N 55°18' E 015°11'4 3.9
2015-May-23 10:33N 55°14' E 015°09'4 4.0
2015-May-23 09:33N 55°10' E 015°07'1 1.1
2015-May-23 08:22N 55°09' E 015°07'0 0.0
2015-May-23 07:27N 55°09' E 015°07'0 0.0
2015-May-23 06:28N 55°09' E 015°07'0 0.0
2015-May-23 05:28N 55°09' E 015°07'0 0.0
2015-May-23 04:28N 55°09' E 015°07'0 0.0
2015-May-23 03:28N 55°09' E 015°07'0 0.0
2015-May-23 02:28N 55°09' E 015°07'0 0.0
2015-May-23 01:28N 55°09' E 015°07'0 0.0
2015-May-23 00:33N 55°09' E 015°07'0 0.0
2015-May-22 23:34N 55°09' E 015°07'0 0.0
2015-May-22 22:28N 55°09' E 015°07'0 0.0
2015-May-22 21:28N 55°09' E 015°07'0 0.0
2015-May-22 20:34N 55°09' E 015°07'0 0.0
2015-May-22 19:34N 55°09' E 015°07'0 0.0
2015-May-22 18:28N 55°09' E 015°07'0 0.0
2015-May-22 17:28N 55°09' E 015°07'0 0.0
2015-May-22 16:34N 55°09' E 015°07'0 0.0
2015-May-22 15:33N 55°09' E 015°07'0 0.0
2015-May-22 14:33N 55°09' E 015°07'2 1.8
2015-May-22 13:33N 55°10' E 015°05'7 6.6
2015-May-22 12:33N 55°15' E 014°56'6 6.2
2015-May-22 11:32N 55°19' E 014°48'6 6.1
2015-May-22 10:33N 55°22' E 014°39'  
2015-May-15 23:27N 55°31' E 014°21'  
Track history (hours):
 
Tides and Currents Weather Stations Pressure Air Temp Water Temp Dewpoint Dewpoint Depression Visibility Wind Speed Wind Dir Waves Ship Positions

Hoppet Af Brantevik

Last reported at 2015-May-24 09:15 UTC. Time now 2015-May-28 22:16 UTC.
Position N 55°26' E 014°39'.

Length 17 m; draft 2.2 m.

Type: Ship. MMSI: 265525900.

Date/timePositionNaut miles runAvg speedWind from/ knotsBaromVisibWave heightAir tempDewpointWater temp
2015-May-24 09:15N 55°26' E 014°39'4 6.1
2015-May-24 08:33N 55°25' E 014°47'6 6.3
2015-May-24 07:33N 55°23' E 014°57'7 6.8
2015-May-24 06:33N 55°21' E 015°08'2 2.0
2015-May-24 05:31N 55°19' E 015°11'0 0.0
2015-May-24 04:31N 55°19' E 015°11'0 0.0
2015-May-24 03:31N 55°19' E 015°11'0 0.0
2015-May-24 02:31N 55°19' E 015°11'0 0.0
2015-May-24 01:31N 55°19' E 015°11'0 0.0
2015-May-23 22:19N 55°19' E 015°11'0 0.0
2015-May-23 21:31N 55°19' E 015°11'0 0.0
2015-May-23 20:25N 55°19' E 015°11'0 0.0
2015-May-23 19:31N 55°19' E 015°11'0 0.0
2015-May-23 18:31N 55°19' E 015°11'0 0.0
2015-May-23 17:31N 55°19' E 015°11'0 0.0
2015-May-23 16:31N 55°19' E 015°11'0 0.0
2015-May-23 15:25N 55°19' E 015°11'0 0.0
2015-May-23 14:31N 55°19' E 015°11'0 0.0
2015-May-23 13:31N 55°19' E 015°11'0 0.0
2015-May-23 12:31N 55°19' E 015°11'2 1.7
2015-May-23 11:33N 55°18' E 015°11'4 3.9
2015-May-23 10:33N 55°14' E 015°09'4 4.0
2015-May-23 09:33N 55°10' E 015°07'1 1.1
2015-May-23 08:22N 55°09' E 015°07'0 0.0
2015-May-23 07:27N 55°09' E 015°07'0 0.0
2015-May-23 06:28N 55°09' E 015°07'0 0.0
2015-May-23 05:28N 55°09' E 015°07'0 0.0
2015-May-23 04:28N 55°09' E 015°07'0 0.0
2015-May-23 03:28N 55°09' E 015°07'0 0.0
2015-May-23 02:28N 55°09' E 015°07'0 0.0
2015-May-23 01:28N 55°09' E 015°07'0 0.0
2015-May-23 00:33N 55°09' E 015°07'0 0.0
2015-May-22 23:34N 55°09' E 015°07'0 0.0
2015-May-22 22:28N 55°09' E 015°07'0 0.0
2015-May-22 21:28N 55°09' E 015°07'0 0.0
2015-May-22 20:34N 55°09' E 015°07'0 0.0
2015-May-22 19:34N 55°09' E 015°07'0 0.0
2015-May-22 18:28N 55°09' E 015°07'0 0.0
2015-May-22 17:28N 55°09' E 015°07'0 0.0
2015-May-22 16:34N 55°09' E 015°07'0 0.0
2015-May-22 15:33N 55°09' E 015°07'0 0.0
2015-May-22 14:33N 55°09' E 015°07'2 1.8
2015-May-22 13:33N 55°10' E 015°05'7 6.6
2015-May-22 12:33N 55°15' E 014°56'6 6.2
2015-May-22 11:32N 55°19' E 014°48'6 6.1
2015-May-22 10:33N 55°22' E 014°39'  
2015-May-15 23:27N 55°31' E 014°21'  

Dump ship's entire track history